Time;durP1;ratioP1;P1;durP2;ratioP2;P2;SDS_P1;SDS_P2;PMS_P1;PMS_P2;Temp;Humidity;BMP_temperature;BMP_pressure;BME280_temperature;BME280_humidity;BME280_pressure;Samples;Min_cycle;Max_cycle;Signal;HPM_P1;HPM_P2
2023/12/29 00:00:36;;;;;;;13.32;5.72;;;0.80;99.90;;;;;;5054888;28;20029;-80
2023/12/29 00:03:02;;;;;;;10.73;5.18;;;0.80;99.90;;;;;;5054704;28;20033;-80
2023/12/29 00:05:28;;;;;;;9.98;4.60;;;0.80;99.90;;;;;;5056328;28;20021;-80
2023/12/29 00:07:54;;;;;;;12.43;5.80;;;0.70;99.90;;;;;;5053862;28;20104;-80
2023/12/29 00:10:20;;;;;;;11.45;5.65;;;0.70;99.90;;;;;;5059995;28;20085;-80
2023/12/29 00:12:45;;;;;;;10.15;5.43;;;0.70;99.90;;;;;;5055847;28;20033;-80
2023/12/29 00:15:11;;;;;;;12.48;5.80;;;0.70;99.90;;;;;;5056341;28;20044;-80
2023/12/29 00:17:37;;;;;;;9.10;5.25;;;0.70;99.90;;;;;;5056007;28;20168;-80
2023/12/29 00:20:10;;;;;;;9.45;4.78;;;0.70;99.90;;;;;;5054528;28;20028;-80
2023/12/29 00:22:36;;;;;;;9.98;4.53;;;0.70;99.90;;;;;;5035923;28;20036;-80
2023/12/29 00:25:02;;;;;;;16.27;6.63;;;0.70;99.90;;;;;;5065660;28;20028;-80
2023/12/29 00:27:28;;;;;;;24.58;12.38;;;0.70;99.90;;;;;;5070610;28;20478;-80
2023/12/29 00:29:54;;;;;;;21.70;10.60;;;0.70;99.90;;;;;;5055822;28;20040;-80
2023/12/29 00:32:20;;;;;;;18.20;8.75;;;0.70;99.90;;;;;;5021652;28;20033;-80
2023/12/29 00:34:46;;;;;;;12.40;6.47;;;0.70;99.90;;;;;;5055849;28;20033;-80
2023/12/29 00:37:11;;;;;;;9.77;5.10;;;0.70;99.90;;;;;;5037566;28;20394;-80
2023/12/29 00:39:40;;;;;;;7.22;4.40;;;0.70;99.90;;;;;;5053184;28;20366;-80
2023/12/29 00:42:06;;;;;;;8.07;3.95;;;0.70;99.90;;;;;;5048221;28;20033;-80
2023/12/29 00:44:32;;;;;;;7.15;3.90;;;0.70;99.90;;;;;;5054294;28;20021;-80
2023/12/29 00:46:58;;;;;;;6.43;3.92;;;0.70;99.90;;;;;;5055618;28;20363;-80
2023/12/29 00:49:23;;;;;;;7.97;3.60;;;0.60;99.90;;;;;;5054056;28;20059;-80
2023/12/29 00:51:49;;;;;;;7.60;3.58;;;0.70;99.90;;;;;;5055324;28;20033;-80
2023/12/29 00:54:15;;;;;;;7.13;3.30;;;0.70;99.90;;;;;;5054569;28;20039;-79
2023/12/29 00:56:41;;;;;;;4.97;2.88;;;0.70;99.90;;;;;;5054376;28;20087;-80
2023/12/29 00:59:07;;;;;;;6.25;3.33;;;0.70;99.90;;;;;;5053937;28;20105;-80
2023/12/29 01:01:36;;;;;;;5.78;3.10;;;0.70;99.90;;;;;;5036901;28;20032;-80
2023/12/29 01:04:02;;;;;;;6.50;3.15;;;0.70;99.90;;;;;;5054769;28;20029;-80
2023/12/29 01:06:28;;;;;;;6.53;3.65;;;0.70;99.90;;;;;;5054821;28;20500;-80
2023/12/29 01:08:53;;;;;;;5.05;3.15;;;0.70;99.90;;;;;;5048720;28;20033;-80
2023/12/29 01:11:19;;;;;;;7.68;3.92;;;0.70;99.90;;;;;;5053422;28;20032;-80
2023/12/29 01:13:45;;;;;;;6.22;3.70;;;0.70;99.90;;;;;;5054327;28;20029;-80
2023/12/29 01:16:10;;;;;;;6.70;3.63;;;0.70;99.90;;;;;;5053108;28;20054;-80
2023/12/29 01:18:36;;;;;;;6.45;3.60;;;0.70;99.90;;;;;;5054307;28;20043;-80
2023/12/29 01:21:02;;;;;;;5.88;3.10;;;0.60;99.90;;;;;;5020169;28;20082;-81
2023/12/29 01:23:28;;;;;;;7.47;3.60;;;0.60;99.90;;;;;;5052715;28;20078;-80
2023/12/29 01:25:54;;;;;;;6.63;3.40;;;0.60;99.90;;;;;;5054293;28;20029;-80
2023/12/29 01:28:19;;;;;;;5.28;2.90;;;0.60;99.90;;;;;;5052693;28;20090;-80
2023/12/29 01:30:45;;;;;;;6.03;2.88;;;0.60;99.90;;;;;;5054052;28;20478;-80
2023/12/29 01:33:10;;;;;;;6.07;2.97;;;0.60;99.90;;;;;;5036560;28;20029;-80
2023/12/29 01:35:37;;;;;;;4.78;2.70;;;0.50;99.90;;;;;;5053396;28;20056;-80
2023/12/29 01:38:03;;;;;;;6.15;2.10;;;0.50;99.90;;;;;;5051798;28;20401;-80
2023/12/29 01:40:28;;;;;;;5.78;2.60;;;0.50;99.90;;;;;;5054621;28;20380;-80
2023/12/29 01:42:54;;;;;;;4.60;2.20;;;0.40;99.90;;;;;;5054040;28;20100;-80
2023/12/29 01:45:23;;;;;;;5.10;2.38;;;0.40;99.90;;;;;;5052581;28;20028;-80
2023/12/29 01:47:49;;;;;;;4.05;2.28;;;0.40;99.90;;;;;;5053688;28;20033;-80
2023/12/29 01:50:16;;;;;;;3.53;2.08;;;0.30;99.90;;;;;;5036649;28;20057;-80
2023/12/29 01:52:43;;;;;;;4.40;2.38;;;0.30;99.90;;;;;;5035994;28;20029;-80
2023/12/29 01:55:12;;;;;;;3.90;1.90;;;0.30;99.90;;;;;;5054435;28;20452;-80
2023/12/29 01:57:38;;;;;;;5.75;2.55;;;0.30;99.90;;;;;;5053975;28;20114;-80
2023/12/29 02:00:05;;;;;;;6.88;3.17;;;0.20;99.90;;;;;;5052973;28;20025;-80
2023/12/29 02:02:32;;;;;;;9.15;4.57;;;0.20;99.90;;;;;;5053104;28;20389;-80
2023/12/29 02:05:00;;;;;;;8.02;3.95;;;0.20;99.90;;;;;;5054007;28;20029;-80
2023/12/29 02:07:30;;;;;;;5.90;3.70;;;0.10;99.90;;;;;;5052998;28;20033;-80
2023/12/29 02:09:57;;;;;;;6.68;3.47;;;0.10;99.90;;;;;;5053140;28;20036;-80
2023/12/29 02:12:23;;;;;;;4.93;2.78;;;0.00;99.90;;;;;;5052864;28;20029;-80
2023/12/29 02:14:49;;;;;;;5.88;2.95;;;-0.10;99.90;;;;;;5053291;28;20078;-80
2023/12/29 02:17:31;;;;;;;7.28;3.10;;;-0.10;99.90;;;;;;5054093;28;20100;-80
2023/12/29 02:19:57;;;;;;;5.82;3.20;;;-0.10;99.90;;;;;;5053716;28;20036;-80
2023/12/29 02:22:22;;;;;;;5.60;2.90;;;-0.20;99.90;;;;;;5053181;28;20547;-80
2023/12/29 02:24:51;;;;;;;3.83;1.92;;;-0.20;99.90;;;;;;5035974;28;20037;-80
2023/12/29 02:27:23;;;;;;;5.78;2.65;;;-0.20;99.90;;;;;;5051503;28;20065;-80
2023/12/29 02:30:06;;;;;;;4.82;2.58;;;-0.30;99.90;;;;;;5053756;28;20033;-80
2023/12/29 02:32:34;;;;;;;4.60;3.05;;;-0.40;99.90;;;;;;5053799;28;20043;-80
2023/12/29 02:35:01;;;;;;;8.13;4.15;;;-0.40;99.90;;;;;;5052487;28;20032;-80
2023/12/29 02:37:28;;;;;;;7.75;3.50;;;-0.40;99.90;;;;;;5052171;28;20056;-80
2023/12/29 02:39:55;;;;;;;9.32;3.92;;;-0.50;99.90;;;;;;5037990;28;20025;-80
2023/12/29 02:42:21;;;;;;;9.82;4.15;;;-0.50;99.90;;;;;;5072329;28;20036;-80
2023/12/29 02:44:47;;;;;;;8.45;4.00;;;-0.40;99.90;;;;;;5073532;28;20017;-80
2023/12/29 02:47:13;;;;;;;8.40;3.80;;;-0.40;99.90;;;;;;5060675;28;20036;-80
2023/12/29 02:49:38;;;;;;;5.80;3.28;;;-0.40;99.90;;;;;;5034826;28;20040;-80
2023/12/29 02:52:04;;;;;;;8.00;3.33;;;-0.40;99.90;;;;;;5054021;28;20064;-80
2023/12/29 02:54:30;;;;;;;7.78;3.25;;;-0.40;99.90;;;;;;5052540;28;20031;-80
2023/12/29 02:56:56;;;;;;;8.85;3.67;;;-0.50;99.90;;;;;;5054212;28;20108;-80
2023/12/29 02:59:21;;;;;;;8.85;3.47;;;-0.50;99.90;;;;;;5053532;28;20079;-80
2023/12/29 03:01:47;;;;;;;16.65;5.95;;;-0.60;99.90;;;;;;5053572;28;20059;-80
2023/12/29 03:04:13;;;;;;;17.50;7.40;;;-0.70;99.90;;;;;;5055028;28;20032;-80
2023/12/29 03:06:40;;;;;;;14.70;6.90;;;-0.80;99.90;;;;;;5055679;28;20028;-80
2023/12/29 03:09:06;;;;;;;9.57;4.75;;;-0.80;99.90;;;;;;5057096;28;20029;-80
2023/12/29 03:11:32;;;;;;;6.50;4.10;;;-0.80;99.90;;;;;;5057249;28;20078;-80
2023/12/29 03:13:57;;;;;;;7.32;3.17;;;-0.90;99.90;;;;;;5055599;28;20064;-80
2023/12/29 03:16:23;;;;;;;5.28;3.20;;;-0.90;99.90;;;;;;5057233;28;20431;-80
2023/12/29 03:18:48;;;;;;;5.07;2.95;;;-0.90;99.90;;;;;;5055085;28;20115;-80
2023/12/29 03:21:14;;;;;;;5.32;2.97;;;-0.90;99.90;;;;;;5056665;28;20044;-80
2023/12/29 03:23:40;;;;;;;5.10;2.63;;;-0.90;99.90;;;;;;5055638;28;20386;-80
2023/12/29 03:26:05;;;;;;;4.57;2.45;;;-1.00;99.90;;;;;;5057295;28;20025;-80
2023/12/29 03:28:31;;;;;;;5.28;2.42;;;-1.00;99.90;;;;;;5055529;28;20123;-80
2023/12/29 03:30:57;;;;;;;5.25;2.60;;;-0.90;99.90;;;;;;5055735;28;20036;-80
2023/12/29 03:33:22;;;;;;;6.47;2.95;;;-0.90;99.90;;;;;;5054702;28;20037;-80
2023/12/29 03:35:48;;;;;;;7.45;3.78;;;-0.90;99.90;;;;;;5022279;28;20538;-80
2023/12/29 03:38:14;;;;;;;6.78;3.40;;;-0.90;99.90;;;;;;5055738;28;20025;-80
2023/12/29 03:40:40;;;;;;;6.03;3.10;;;-0.90;99.90;;;;;;5065892;28;20025;-80
2023/12/29 03:43:06;;;;;;;5.50;3.13;;;-0.90;99.90;;;;;;5075147;28;20032;-80
2023/12/29 03:45:31;;;;;;;4.60;2.83;;;-0.80;99.90;;;;;;5075127;28;20473;-80
2023/12/29 03:47:57;;;;;;;5.47;2.53;;;-0.80;99.90;;;;;;5060239;28;20040;-80
2023/12/29 03:50:22;;;;;;;6.35;2.92;;;-0.80;99.90;;;;;;5041941;28;20033;-80
2023/12/29 03:52:48;;;;;;;4.78;2.50;;;-0.70;99.90;;;;;;5069562;28;20037;-80
2023/12/29 03:55:15;;;;;;;6.60;2.70;;;-0.80;99.90;;;;;;5071525;28;20108;-80
2023/12/29 03:57:42;;;;;;;19.55;6.90;;;-0.80;99.90;;;;;;5054790;28;20091;-80
2023/12/29 04:00:12;;;;;;;15.05;6.15;;;-0.70;99.90;;;;;;5055207;28;20104;-80
2023/12/29 04:02:38;;;;;;;5.57;3.27;;;-0.80;99.90;;;;;;5055711;28;20017;-80
2023/12/29 04:05:06;;;;;;;7.20;3.20;;;-0.70;99.90;;;;;;5056408;28;20025;-80
2023/12/29 04:07:31;;;;;;;5.97;2.72;;;-0.70;99.90;;;;;;5055890;28;20025;-80
2023/12/29 04:09:57;;;;;;;4.65;2.30;;;-0.70;99.90;;;;;;5041078;28;20075;-80
2023/12/29 04:12:23;;;;;;;4.35;2.20;;;-0.70;99.90;;;;;;5074752;28;20078;-80
2023/12/29 04:14:48;;;;;;;4.50;2.47;;;-0.70;99.90;;;;;;5076280;28;20103;-80
2023/12/29 04:17:14;;;;;;;6.57;3.30;;;-0.60;99.90;;;;;;5061766;28;20405;-80
2023/12/29 04:19:41;;;;;;;6.47;3.13;;;-0.60;99.90;;;;;;5055742;28;20021;-80
2023/12/29 04:22:07;;;;;;;7.78;3.28;;;-0.60;99.90;;;;;;5056323;28;20544;-80
2023/12/29 04:24:33;;;;;;;8.50;3.70;;;-0.60;99.90;;;;;;5054302;28;20116;-80
2023/12/29 04:26:59;;;;;;;7.45;3.72;;;-0.60;99.90;;;;;;5038172;28;20052;-80
2023/12/29 04:29:25;;;;;;;5.82;3.47;;;-0.60;99.90;;;;;;5054644;28;20067;-80
2023/12/29 04:31:50;;;;;;;6.97;3.60;;;-0.70;99.90;;;;;;5034331;28;20038;-80
2023/12/29 04:34:16;;;;;;;8.75;3.72;;;-0.70;99.90;;;;;;5034431;28;20075;-80
2023/12/29 04:36:43;;;;;;;9.30;3.50;;;-0.70;99.90;;;;;;5043654;28;20100;-80
2023/12/29 04:39:09;;;;;;;8.73;3.50;;;-0.80;99.90;;;;;;5055450;28;20489;-80
2023/12/29 04:41:35;;;;;;;8.10;3.55;;;-0.70;99.90;;;;;;5055236;28;20048;-80
2023/12/29 04:44:00;;;;;;;7.28;3.65;;;-0.80;99.90;;;;;;5055231;28;20023;-80
2023/12/29 04:46:26;;;;;;;9.73;3.78;;;-0.80;99.90;;;;;;5055037;28;20100;-80
2023/12/29 04:48:53;;;;;;;6.75;4.13;;;-0.70;99.90;;;;;;5053910;28;20040;-80
2023/12/29 04:51:18;;;;;;;7.63;3.60;;;-0.70;99.90;;;;;;5037827;28;20059;-80
2023/12/29 04:53:44;;;;;;;5.70;3.00;;;-0.70;99.90;;;;;;5054277;28;20025;-80
2023/12/29 04:56:10;;;;;;;6.25;2.63;;;-0.70;99.90;;;;;;5054361;28;20086;-80
2023/12/29 04:58:37;;;;;;;6.80;3.53;;;-0.70;99.90;;;;;;5053581;28;20029;-80
2023/12/29 05:01:02;;;;;;;5.15;3.58;;;-0.80;99.90;;;;;;5070774;28;20029;-79
2023/12/29 05:03:28;;;;;;;6.57;3.83;;;-0.80;99.90;;;;;;5053819;28;20047;-80
2023/12/29 05:05:54;;;;;;;7.85;3.15;;;-0.80;99.90;;;;;;5053876;28;20025;-79
2023/12/29 05:08:19;;;;;;;4.63;3.03;;;-0.70;99.90;;;;;;5054819;28;20033;-79
2023/12/29 05:10:45;;;;;;;6.90;2.88;;;-0.70;99.90;;;;;;5054114;28;20084;-80
2023/12/29 05:13:11;;;;;;;5.13;2.67;;;-0.70;99.90;;;;;;5070281;28;20029;-80
2023/12/29 05:15:36;;;;;;;5.38;3.20;;;-0.60;99.90;;;;;;5054957;28;20033;-80
2023/12/29 05:18:02;;;;;;;5.85;2.88;;;-0.60;99.90;;;;;;5037177;28;20465;-80
2023/12/29 05:20:28;;;;;;;8.00;3.00;;;-0.60;99.90;;;;;;5054451;28;20025;-80
2023/12/29 05:22:53;;;;;;;10.95;4.63;;;-0.60;99.90;;;;;;5054976;28;20063;-80
2023/12/29 05:25:21;;;;;;;6.65;2.90;;;-0.50;99.90;;;;;;5054633;28;20045;-80
2023/12/29 05:27:47;;;;;;;12.27;6.13;;;-0.50;99.90;;;;;;5053128;28;20040;-80
2023/12/29 05:30:13;;;;;;;8.40;4.63;;;-0.50;99.90;;;;;;5053429;28;20040;-81
2023/12/29 05:32:39;;;;;;;10.00;4.82;;;-0.50;99.90;;;;;;5021049;28;20025;-80
2023/12/29 05:35:05;;;;;;;7.25;3.97;;;-0.50;99.90;;;;;;5037600;28;20414;-80
2023/12/29 05:37:31;;;;;;;8.70;4.80;;;-0.50;99.90;;;;;;5036846;28;20547;-80
2023/12/29 05:39:56;;;;;;;8.00;4.13;;;-0.50;99.90;;;;;;5057126;28;20036;-80
2023/12/29 05:42:22;;;;;;;6.90;3.88;;;-0.50;99.90;;;;;;5054005;28;20043;-80
2023/12/29 05:44:48;;;;;;;8.23;3.80;;;-0.50;99.90;;;;;;5034910;28;20029;-80
2023/12/29 05:47:14;;;;;;;9.23;4.03;;;-0.50;99.90;;;;;;5053557;28;20060;-80
2023/12/29 05:49:39;;;;;;;9.35;4.60;;;-0.50;99.90;;;;;;5052991;28;20543;-80
2023/12/29 05:52:06;;;;;;;6.65;4.32;;;-0.50;99.90;;;;;;5054618;28;20037;-80
2023/12/29 05:54:31;;;;;;;6.78;4.00;;;-0.50;99.90;;;;;;5054290;28;20025;-80
2023/12/29 05:56:58;;;;;;;8.63;3.95;;;-0.50;99.90;;;;;;5052989;28;20036;-80
2023/12/29 05:59:23;;;;;;;7.32;3.38;;;-0.50;99.90;;;;;;5053548;28;20021;-80
2023/12/29 06:01:49;;;;;;;6.15;3.13;;;-0.50;99.90;;;;;;5052996;28;20028;-80
2023/12/29 06:04:15;;;;;;;5.05;3.13;;;-0.50;99.90;;;;;;5053044;28;20029;-80
2023/12/29 06:06:44;;;;;;;7.78;3.28;;;-0.40;99.90;;;;;;5054316;28;20040;-80
2023/12/29 06:09:10;;;;;;;5.80;2.88;;;-0.40;99.90;;;;;;5099738;23;20071;-80
2023/12/29 06:11:36;;;;;;;6.25;2.97;;;-0.50;99.90;;;;;;5076164;28;20387;-80
2023/12/29 06:14:02;;;;;;;5.80;2.97;;;-0.50;99.90;;;;;;5093674;28;20103;-80
2023/12/29 06:16:29;;;;;;;5.40;3.10;;;-0.50;99.90;;;;;;5075778;28;20426;-80
2023/12/29 06:18:55;;;;;;;5.32;3.20;;;-0.50;99.90;;;;;;5087628;28;20028;-80
2023/12/29 06:21:21;;;;;;;6.18;3.20;;;-0.50;99.90;;;;;;5096422;28;20415;-80
2023/12/29 06:23:47;;;;;;;10.15;4.88;;;-0.40;99.90;;;;;;5112695;28;20024;-80
2023/12/29 06:26:17;;;;;;;44.40;22.90;;;-0.40;99.90;;;;;;5077657;28;20030;-80
2023/12/29 06:28:44;;;;;;;23.10;12.07;;;-0.40;99.90;;;;;;5107222;28;20085;-80
2023/12/29 06:31:09;;;;;;;16.25;7.85;;;-0.40;99.90;;;;;;5079577;28;20046;-79
2023/12/29 06:33:35;;;;;;;14.35;7.18;;;-0.40;99.90;;;;;;5092056;28;20028;-79
2023/12/29 06:36:01;;;;;;;9.40;5.35;;;-0.40;99.90;;;;;;5093902;28;20032;-78
2023/12/29 06:38:27;;;;;;;8.30;5.13;;;-0.40;99.90;;;;;;5095557;28;20103;-78
2023/12/29 06:40:52;;;;;;;9.38;4.50;;;-0.40;99.90;;;;;;5080399;28;20488;-78
2023/12/29 06:43:18;;;;;;;7.22;3.90;;;-0.40;99.90;;;;;;5067052;28;20366;-78
2023/12/29 06:45:44;;;;;;;7.80;3.63;;;-0.40;99.90;;;;;;5083351;28;20430;-78
2023/12/29 06:48:09;;;;;;;8.18;3.83;;;-0.40;99.90;;;;;;5079845;28;20557;-78
2023/12/29 06:50:36;;;;;;;6.80;3.05;;;-0.40;99.90;;;;;;5079649;28;20051;-78
2023/12/29 06:53:03;;;;;;;7.80;4.15;;;-0.40;99.90;;;;;;5098609;28;20036;-78
2023/12/29 06:55:29;;;;;;;8.07;4.38;;;-0.40;99.90;;;;;;5097652;28;20107;-78
2023/12/29 06:57:54;;;;;;;10.82;5.43;;;-0.40;99.90;;;;;;5097301;28;20067;-78
2023/12/29 07:00:20;;;;;;;10.98;5.38;;;-0.40;99.90;;;;;;5097534;28;20028;-78
2023/12/29 07:02:46;;;;;;;13.88;5.93;;;-0.50;99.90;;;;;;5093430;28;20084;-78
2023/12/29 07:05:11;;;;;;;13.45;7.45;;;-0.50;99.90;;;;;;5099438;28;20024;-78
2023/12/29 07:07:37;;;;;;;11.55;6.57;;;-0.50;99.90;;;;;;5082613;28;20028;-78
2023/12/29 07:10:06;;;;;;;11.13;6.28;;;-0.50;99.90;;;;;;5082212;28;20047;-78
2023/12/29 07:12:31;;;;;;;11.25;6.50;;;-0.50;99.90;;;;;;5117451;28;20111;-78
2023/12/29 07:14:57;;;;;;;11.80;6.22;;;-0.50;99.90;;;;;;5099976;28;20065;-78
2023/12/29 07:17:23;;;;;;;9.35;6.00;;;-0.50;99.90;;;;;;5105237;28;20028;-78
2023/12/29 07:19:49;;;;;;;12.02;6.40;;;-0.40;99.90;;;;;;5097046;28;20020;-78
2023/12/29 07:22:15;;;;;;;10.40;4.65;;;-0.40;99.90;;;;;;5097205;28;20395;-78
2023/12/29 07:24:41;;;;;;;9.00;3.90;;;-0.40;99.90;;;;;;5078903;28;20055;-78
2023/12/29 07:27:07;;;;;;;10.93;4.40;;;-0.40;99.90;;;;;;5097023;28;20449;-78
2023/12/29 07:29:33;;;;;;;7.40;4.63;;;-0.30;99.90;;;;;;5079395;28;20039;-78
2023/12/29 07:31:59;;;;;;;9.02;4.95;;;-0.30;99.90;;;;;;5062397;28;20046;-78
2023/12/29 07:34:25;;;;;;;11.32;5.40;;;-0.30;99.90;;;;;;5112691;28;20446;-78
2023/12/29 07:36:51;;;;;;;14.25;7.60;;;-0.30;99.90;;;;;;5098777;28;20159;-78
2023/12/29 07:39:18;;;;;;;10.05;6.00;;;-0.30;99.90;;;;;;5116987;28;20447;-78
2023/12/29 07:41:43;;;;;;;9.40;5.15;;;-0.30;99.90;;;;;;5098871;28;20023;-78
2023/12/29 07:44:12;;;;;;;11.20;6.25;;;-0.30;99.90;;;;;;5098726;28;20024;-78
2023/12/29 07:46:39;;;;;;;8.77;4.72;;;-0.20;99.90;;;;;;5116786;28;20031;-78
2023/12/29 07:49:05;;;;;;;9.70;4.55;;;-0.20;99.90;;;;;;5099112;28;20097;-78
2023/12/29 07:51:31;;;;;;;7.80;4.50;;;-0.20;99.90;;;;;;5117728;28;20103;-78
2023/12/29 07:53:57;;;;;;;9.20;4.15;;;-0.10;99.90;;;;;;5098583;28;20464;-78
2023/12/29 07:56:23;;;;;;;9.63;5.00;;;-0.10;99.90;;;;;;5117360;28;20035;-78
2023/12/29 07:58:48;;;;;;;9.43;5.38;;;-0.10;99.90;;;;;;5117208;28;20027;-78
2023/12/29 08:01:14;;;;;;;9.43;5.60;;;-0.10;99.90;;;;;;5082967;28;20034;-78
2023/12/29 08:03:39;;;;;;;23.95;11.18;;;0.00;99.90;;;;;;5113319;28;20020;-78
2023/12/29 08:06:05;;;;;;;17.67;9.38;;;0.10;99.90;;;;;;5079410;28;20081;-78
2023/12/29 08:08:31;;;;;;;15.13;7.70;;;0.10;99.90;;;;;;5079389;28;20040;-78
2023/12/29 08:10:56;;;;;;;14.63;6.95;;;0.10;99.90;;;;;;5096784;28;20040;-78
2023/12/29 08:13:22;;;;;;;14.40;7.10;;;0.20;99.90;;;;;;5096346;28;20027;-78
2023/12/29 08:15:48;;;;;;;12.95;7.40;;;0.20;99.90;;;;;;5096471;28;20084;-78
2023/12/29 08:18:13;;;;;;;13.10;7.00;;;0.30;99.90;;;;;;5078262;28;20438;-78
2023/12/29 08:20:39;;;;;;;10.50;6.30;;;0.30;99.90;;;;;;5064484;28;20090;-78
2023/12/29 08:23:05;;;;;;;10.23;5.40;;;0.40;99.90;;;;;;5077728;28;20028;-78
2023/12/29 08:25:30;;;;;;;9.55;4.93;;;0.40;99.90;;;;;;5095530;28;20085;-78
2023/12/29 08:27:56;;;;;;;7.10;3.92;;;0.50;99.90;;;;;;5077635;28;20107;-78
2023/12/29 08:30:22;;;;;;;6.65;4.18;;;0.50;99.90;;;;;;5095505;28;20020;-78
2023/12/29 08:32:48;;;;;;;8.93;4.32;;;0.60;99.90;;;;;;5095431;28;20096;-78
2023/12/29 08:35:13;;;;;;;8.88;4.25;;;0.60;99.90;;;;;;5095824;28;20450;-78
2023/12/29 08:37:39;;;;;;;9.73;4.75;;;0.60;99.90;;;;;;5087045;28;20040;-79
2023/12/29 08:40:06;;;;;;;10.82;6.20;;;0.60;99.90;;;;;;5075677;28;20028;-78
2023/12/29 08:42:32;;;;;;;37.72;26.67;;;0.70;99.90;;;;;;5075989;28;20384;-78
2023/12/29 08:44:59;;;;;;;16.75;12.45;;;0.70;99.90;;;;;;5074788;28;20021;-78
2023/12/29 08:47:24;;;;;;;14.85;10.82;;;0.70;99.90;;;;;;5089347;28;20024;-78
2023/12/29 08:49:51;;;;;;;9.75;5.28;;;0.70;99.90;;;;;;5078064;28;20043;-78
2023/12/29 08:52:16;;;;;;;10.38;4.72;;;0.80;99.90;;;;;;5092209;28;20030;-78
2023/12/29 08:54:42;;;;;;;11.90;4.25;;;0.80;99.90;;;;;;5062202;28;20020;-78
2023/12/29 08:57:08;;;;;;;8.98;5.60;;;0.80;99.90;;;;;;5115442;28;20032;-78
2023/12/29 08:59:33;;;;;;;10.10;5.35;;;0.90;99.90;;;;;;5115152;28;20020;-78
2023/12/29 09:02:00;;;;;;;9.50;4.90;;;1.00;99.90;;;;;;5114614;28;20024;-78
2023/12/29 09:04:25;;;;;;;8.80;4.93;;;1.00;99.90;;;;;;5115741;28;20019;-78
2023/12/29 09:06:51;;;;;;;12.80;5.25;;;1.00;99.90;;;;;;5097086;28;20103;-78
2023/12/29 09:09:17;;;;;;;7.95;4.47;;;1.10;99.90;;;;;;5096534;28;20507;-78
2023/12/29 09:11:43;;;;;;;8.52;4.57;;;1.10;99.90;;;;;;5082229;28;20157;-78
2023/12/29 09:14:09;;;;;;;7.72;4.32;;;1.10;99.90;;;;;;5076409;28;20051;-78
2023/12/29 09:16:38;;;;;;;10.43;6.00;;;1.20;99.90;;;;;;5076347;28;20097;-79
2023/12/29 09:19:03;;;;;;;8.23;4.65;;;1.20;99.90;;;;;;5094238;28;20488;-78
2023/12/29 09:21:29;;;;;;;8.15;4.80;;;1.40;99.90;;;;;;5076301;28;20036;-78
2023/12/29 09:23:55;;;;;;;8.95;4.47;;;1.40;99.90;;;;;;5076480;28;20533;-78
2023/12/29 09:26:20;;;;;;;7.13;4.72;;;1.50;99.90;;;;;;5094069;28;20028;-78
2023/12/29 09:28:47;;;;;;;11.27;5.35;;;1.50;99.90;;;;;;5094085;28;20107;-78
2023/12/29 09:31:13;;;;;;;9.02;4.65;;;1.60;99.90;;;;;;5094327;28;20058;-78
2023/12/29 09:33:38;;;;;;;9.15;4.15;;;1.60;99.90;;;;;;5059494;28;20051;-78
2023/12/29 09:36:05;;;;;;;7.15;3.83;;;1.70;99.90;;;;;;5094776;28;20036;-78
2023/12/29 09:38:30;;;;;;;8.10;4.15;;;1.70;99.90;;;;;;5094111;28;20442;-78
2023/12/29 09:41:02;;;;;;;5.63;3.33;;;1.80;99.90;;;;;;5059289;28;20024;-78
2023/12/29 09:43:31;;;;;;;7.13;3.92;;;1.90;99.90;;;;;;5095494;28;20012;-78
2023/12/29 09:45:59;;;;;;;6.57;4.10;;;1.90;99.90;;;;;;5094198;28;20035;-78
2023/12/29 09:48:26;;;;;;;8.75;4.10;;;2.00;99.90;;;;;;5075876;28;20024;-78
2023/12/29 09:50:54;;;;;;;9.85;4.88;;;2.00;99.90;;;;;;5075966;28;20115;-78
2023/12/29 09:53:21;;;;;;;6.55;4.50;;;2.10;99.90;;;;;;5094131;28;20373;-78
2023/12/29 09:55:49;;;;;;;6.80;4.45;;;2.10;99.90;;;;;;5093734;28;20111;-78
2023/12/29 09:58:15;;;;;;;9.10;4.53;;;2.20;99.90;;;;;;5093862;28;20037;-78
2023/12/29 10:00:42;;;;;;;9.43;5.68;;;2.20;99.90;;;;;;5087727;28;20023;-78
2023/12/29 10:03:09;;;;;;;7.93;4.68;;;2.30;99.90;;;;;;5096020;28;20019;-78
2023/12/29 10:05:35;;;;;;;9.55;4.97;;;2.30;99.90;;;;;;5096078;28;20024;-78
2023/12/29 10:08:03;;;;;;;11.20;5.55;;;2.40;99.90;;;;;;5113960;28;20514;-78
2023/12/29 10:10:30;;;;;;;10.85;5.47;;;2.40;99.90;;;;;;5114137;28;20026;-78
2023/12/29 10:12:57;;;;;;;10.25;5.15;;;2.50;99.90;;;;;;5098222;28;20030;-78
2023/12/29 10:15:51;;;;;;;7.85;4.60;;;2.50;99.90;;;;;;5118532;28;20027;-78
2023/12/29 10:18:39;;;;;;;9.02;4.97;;;2.60;99.90;;;;;;5100109;28;20111;-78
2023/12/29 10:21:19;;;;;;;10.25;4.80;;;2.70;99.90;;;;;;5098057;28;20031;-78
2023/12/29 10:23:54;;;;;;;10.10;4.75;;;2.70;99.90;;;;;;5110267;28;20032;-78
2023/12/29 10:26:20;;;;;;;11.60;5.72;;;2.80;99.90;;;;;;5077998;28;20016;-78
2023/12/29 10:28:48;;;;;;;10.32;4.82;;;2.90;99.90;;;;;;5059527;28;20033;-78
2023/12/29 10:31:18;;;;;;;13.50;5.25;;;3.00;99.90;;;;;;5059453;28;20020;-78
2023/12/29 10:33:44;;;;;;;9.00;5.10;;;3.00;99.90;;;;;;5077768;28;20036;-78
2023/12/29 10:36:10;;;;;;;8.75;4.22;;;3.10;99.90;;;;;;5084842;28;20035;-78
2023/12/29 10:38:41;;;;;;;11.38;5.13;;;3.10;99.90;;;;;;5067562;28;20027;-78
2023/12/29 10:41:15;;;;;;;9.63;4.93;;;3.20;99.90;;;;;;5081164;28;20086;-79
2023/12/29 10:43:42;;;;;;;12.05;4.88;;;3.20;99.90;;;;;;5099173;28;20027;-78
2023/12/29 10:46:09;;;;;;;9.40;4.90;;;3.30;99.90;;;;;;5098519;28;20020;-78
2023/12/29 10:48:35;;;;;;;10.75;5.03;;;3.40;99.90;;;;;;5080085;28;20038;-78
2023/12/29 10:51:03;;;;;;;8.88;4.72;;;3.40;99.90;;;;;;5097880;28;20028;-78
2023/12/29 10:53:33;;;;;;;12.18;4.70;;;3.50;99.90;;;;;;5079625;28;20164;-78
2023/12/29 10:55:59;;;;;;;8.30;4.20;;;3.60;99.90;;;;;;5078816;28;20114;-78
2023/12/29 10:58:29;;;;;;;6.05;3.78;;;3.70;99.90;;;;;;5079110;28;20020;-78
2023/12/29 11:01:02;;;;;;;6.90;3.40;;;3.70;99.90;;;;;;5097230;28;20033;-77
2023/12/29 11:03:28;;;;;;;6.75;2.92;;;3.80;99.90;;;;;;5097494;28;20027;-78
2023/12/29 11:06:01;;;;;;;6.18;3.20;;;3.90;99.90;;;;;;5062492;28;20029;-78
2023/12/29 11:08:27;;;;;;;5.28;3.20;;;3.90;99.90;;;;;;5096476;28;20040;-78
2023/12/29 11:10:54;;;;;;;7.15;3.45;;;3.90;99.90;;;;;;5117299;28;20108;-77
2023/12/29 11:13:21;;;;;;;8.75;4.03;;;4.00;99.90;;;;;;5117432;28;20024;-78
2023/12/29 11:15:47;;;;;;;5.32;3.50;;;4.10;99.90;;;;;;5117410;28;20392;-78
2023/12/29 11:18:15;;;;;;;8.57;3.67;;;4.20;99.90;;;;;;5098923;28;20024;-78
2023/12/29 11:20:45;;;;;;;5.13;2.78;;;4.30;99.90;;;;;;5118005;28;20020;-78
2023/12/29 11:23:14;;;;;;;4.70;2.95;;;4.40;99.90;;;;;;5079257;28;20016;-77
2023/12/29 11:25:40;;;;;;;5.75;3.03;;;4.40;99.90;;;;;;5078641;28;20035;-77
2023/12/29 11:28:11;;;;;;;6.25;2.90;;;4.50;99.90;;;;;;5096738;28;20476;-78
2023/12/29 11:30:38;;;;;;;6.38;2.78;;;4.60;99.90;;;;;;5079152;28;20020;-77
2023/12/29 11:33:18;;;;;;;5.57;2.70;;;4.60;99.90;;;;;;5078511;28;20100;-77
2023/12/29 11:35:56;;;;;;;5.93;2.40;;;4.70;99.90;;;;;;5096752;28;20095;-77
2023/12/29 11:38:40;;;;;;;5.68;2.30;;;4.70;99.90;;;;;;5096622;28;20032;-77
2023/12/29 11:41:10;;;;;;;4.55;2.40;;;4.70;99.90;;;;;;5099103;28;20031;-78
2023/12/29 11:43:37;;;;;;;7.35;2.80;;;4.80;99.90;;;;;;5097394;28;20412;-78
2023/12/29 11:46:03;;;;;;;5.53;2.85;;;4.80;99.90;;;;;;5097106;28;20020;-78
2023/12/29 11:48:54;;;;;;;4.97;2.53;;;4.80;99.90;;;;;;5079020;28;20043;-78
2023/12/29 11:51:34;;;;;;;4.95;3.10;;;4.90;99.90;;;;;;5096933;28;20042;-78
2023/12/29 11:54:04;;;;;;;6.57;3.17;;;4.90;99.90;;;;;;5078685;28;20488;-78
2023/12/29 11:56:41;;;;;;;4.32;2.58;;;4.90;99.90;;;;;;5106338;28;20042;-78
2023/12/29 11:59:20;;;;;;;3.70;2.17;;;4.90;99.90;;;;;;5099390;28;20024;-78
2023/12/29 12:01:48;;;;;;;3.63;1.95;;;5.00;99.90;;;;;;5117064;28;20054;-78
2023/12/29 12:04:41;;;;;;;4.38;2.03;;;5.00;99.90;;;;;;5116633;28;20026;-78
2023/12/29 12:07:09;;;;;;;3.97;2.08;;;5.00;99.90;;;;;;5104944;28;20118;-78
2023/12/29 12:09:36;;;;;;;4.97;2.10;;;5.00;99.90;;;;;;5111616;28;20024;-78
2023/12/29 12:12:06;;;;;;;4.85;2.35;;;5.00;99.90;;;;;;5116728;28;20032;-78
2023/12/29 12:14:49;;;;;;;7.60;2.40;;;5.10;99.90;;;;;;5099388;28;20032;-78
2023/12/29 12:17:50;;;;;;;6.25;2.88;;;5.10;99.90;;;;;;5098867;28;20031;-78
2023/12/29 12:20:16;;;;;;;6.05;2.42;;;5.20;99.90;;;;;;5059092;28;20473;-78
2023/12/29 12:22:44;;;;;;;8.32;1.90;;;5.20;99.90;;;;;;5079872;28;20032;-78
2023/12/29 12:25:11;;;;;;;3.22;2.05;;;5.30;99.90;;;;;;5084189;28;20435;-78
2023/12/29 12:27:38;;;;;;;5.90;2.78;;;5.30;99.90;;;;;;5093925;28;20099;-78
2023/12/29 12:30:05;;;;;;;9.15;2.83;;;5.30;99.90;;;;;;5077528;28;20044;-78
2023/12/29 12:32:32;;;;;;;8.85;2.80;;;5.40;99.90;;;;;;5077101;28;20369;-79
2023/12/29 12:34:58;;;;;;;7.40;3.63;;;5.40;99.90;;;;;;5092494;28;20480;-79
2023/12/29 12:37:27;;;;;;;9.43;3.47;;;5.40;99.90;;;;;;5096472;28;20042;-78
2023/12/29 12:39:53;;;;;;;9.38;4.65;;;5.40;99.90;;;;;;5077165;28;20028;-78
2023/12/29 12:42:23;;;;;;;12.88;4.90;;;5.40;99.90;;;;;;5077315;28;20024;-78
2023/12/29 12:45:01;;;;;;;13.70;5.88;;;5.50;99.90;;;;;;5095572;28;20028;-79
2023/12/29 12:47:45;;;;;;;16.98;5.75;;;5.50;99.90;;;;;;5096140;28;20020;-78
2023/12/29 12:50:12;;;;;;;11.18;6.07;;;5.50;99.90;;;;;;5096125;28;20031;-79